sensor_id;sensor_type;location;lat;lon;timestamp;P1;durP1;ratioP1;P2;durP2;ratioP2
48861;SDS011;34681;49.188;-0.374;2023-08-07T00:00:33;4.67;;;2.27;;
48861;SDS011;34681;49.188;-0.374;2023-08-07T00:02:59;3.70;;;2.33;;
48861;SDS011;34681;49.188;-0.374;2023-08-07T00:05:24;3.60;;;2.90;;
48861;SDS011;34681;49.188;-0.374;2023-08-07T00:07:49;4.40;;;3.37;;
48861;SDS011;34681;49.188;-0.374;2023-08-07T00:10:15;5.17;;;2.60;;
48861;SDS011;34681;49.188;-0.374;2023-08-07T00:12:40;8.30;;;3.03;;
48861;SDS011;34681;49.188;-0.374;2023-08-07T00:15:06;3.37;;;2.53;;
48861;SDS011;34681;49.188;-0.374;2023-08-07T00:17:32;4.40;;;2.00;;
48861;SDS011;34681;49.188;-0.374;2023-08-07T00:19:57;3.67;;;2.47;;
48861;SDS011;34681;49.188;-0.374;2023-08-07T00:22:22;5.97;;;2.70;;
48861;SDS011;34681;49.188;-0.374;2023-08-07T00:24:48;7.00;;;2.90;;
48861;SDS011;34681;49.188;-0.374;2023-08-07T00:27:13;4.80;;;2.40;;
48861;SDS011;34681;49.188;-0.374;2023-08-07T00:29:39;5.43;;;2.80;;
48861;SDS011;34681;49.188;-0.374;2023-08-07T00:32:05;5.87;;;2.83;;
48861;SDS011;34681;49.188;-0.374;2023-08-07T00:34:30;7.00;;;2.90;;
48861;SDS011;34681;49.188;-0.374;2023-08-07T00:36:56;3.30;;;2.50;;
48861;SDS011;34681;49.188;-0.374;2023-08-07T00:39:22;5.60;;;2.43;;
48861;SDS011;34681;49.188;-0.374;2023-08-07T00:41:47;5.87;;;2.93;;
48861;SDS011;34681;49.188;-0.374;2023-08-07T00:44:12;2.87;;;2.53;;
48861;SDS011;34681;49.188;-0.374;2023-08-07T00:46:38;3.23;;;1.97;;
48861;SDS011;34681;49.188;-0.374;2023-08-07T00:49:07;8.63;;;2.80;;
48861;SDS011;34681;49.188;-0.374;2023-08-07T00:51:34;3.43;;;2.20;;
48861;SDS011;34681;49.188;-0.374;2023-08-07T00:54:00;3.33;;;2.13;;
48861;SDS011;34681;49.188;-0.374;2023-08-07T00:56:28;3.93;;;2.60;;
48861;SDS011;34681;49.188;-0.374;2023-08-07T00:58:55;3.80;;;2.17;;
48861;SDS011;34681;49.188;-0.374;2023-08-07T01:01:20;5.37;;;1.90;;
48861;SDS011;34681;49.188;-0.374;2023-08-07T01:03:46;9.23;;;2.70;;
48861;SDS011;34681;49.188;-0.374;2023-08-07T01:06:11;4.17;;;2.57;;
48861;SDS011;34681;49.188;-0.374;2023-08-07T01:08:36;4.07;;;2.30;;
48861;SDS011;34681;49.188;-0.374;2023-08-07T01:19:29;4.63;;;2.40;;
48861;SDS011;34681;49.188;-0.374;2023-08-07T01:22:13;4.20;;;2.23;;
48861;SDS011;34681;49.188;-0.374;2023-08-07T01:24:43;2.77;;;2.00;;
48861;SDS011;34681;49.188;-0.374;2023-08-07T01:35:16;2.93;;;2.40;;
48861;SDS011;34681;49.188;-0.374;2023-08-07T01:37:45;3.80;;;2.33;;
48861;SDS011;34681;49.188;-0.374;2023-08-07T01:40:12;4.33;;;3.03;;
48861;SDS011;34681;49.188;-0.374;2023-08-07T01:42:39;2.60;;;2.40;;
48861;SDS011;34681;49.188;-0.374;2023-08-07T01:45:04;4.27;;;2.97;;
48861;SDS011;34681;49.188;-0.374;2023-08-07T01:47:30;9.13;;;2.77;;
48861;SDS011;34681;49.188;-0.374;2023-08-07T01:49:56;4.60;;;2.60;;
48861;SDS011;34681;49.188;-0.374;2023-08-07T01:52:21;4.07;;;2.40;;
48861;SDS011;34681;49.188;-0.374;2023-08-07T01:54:47;5.00;;;2.93;;
48861;SDS011;34681;49.188;-0.374;2023-08-07T01:57:13;4.40;;;2.67;;
48861;SDS011;34681;49.188;-0.374;2023-08-07T01:59:38;6.40;;;3.03;;
48861;SDS011;34681;49.188;-0.374;2023-08-07T02:02:04;7.30;;;3.07;;
48861;SDS011;34681;49.188;-0.374;2023-08-07T02:04:29;9.33;;;4.10;;
48861;SDS011;34681;49.188;-0.374;2023-08-07T02:06:54;5.20;;;3.00;;
48861;SDS011;34681;49.188;-0.374;2023-08-07T02:09:20;6.20;;;2.90;;
48861;SDS011;34681;49.188;-0.374;2023-08-07T02:11:46;3.13;;;2.83;;
48861;SDS011;34681;49.188;-0.374;2023-08-07T02:14:11;3.53;;;2.80;;
48861;SDS011;34681;49.188;-0.374;2023-08-07T02:16:36;2.30;;;2.10;;
48861;SDS011;34681;49.188;-0.374;2023-08-07T02:19:02;3.53;;;2.33;;
48861;SDS011;34681;49.188;-0.374;2023-08-07T02:21:27;5.17;;;2.70;;
48861;SDS011;34681;49.188;-0.374;2023-08-07T02:23:52;2.70;;;2.40;;
48861;SDS011;34681;49.188;-0.374;2023-08-07T02:26:18;3.13;;;2.80;;
48861;SDS011;34681;49.188;-0.374;2023-08-07T02:28:43;4.60;;;2.97;;
48861;SDS011;34681;49.188;-0.374;2023-08-07T02:31:08;4.87;;;2.80;;
48861;SDS011;34681;49.188;-0.374;2023-08-07T02:33:34;2.50;;;2.30;;
48861;SDS011;34681;49.188;-0.374;2023-08-07T02:35:59;5.20;;;2.97;;
48861;SDS011;34681;49.188;-0.374;2023-08-07T02:38:25;2.87;;;2.37;;
48861;SDS011;34681;49.188;-0.374;2023-08-07T02:40:51;4.90;;;2.37;;
48861;SDS011;34681;49.188;-0.374;2023-08-07T02:43:16;4.43;;;2.70;;
48861;SDS011;34681;49.188;-0.374;2023-08-07T02:45:41;2.90;;;2.37;;
48861;SDS011;34681;49.188;-0.374;2023-08-07T02:48:07;4.37;;;2.83;;
48861;SDS011;34681;49.188;-0.374;2023-08-07T02:50:32;4.90;;;2.40;;
48861;SDS011;34681;49.188;-0.374;2023-08-07T02:52:58;4.87;;;2.50;;
48861;SDS011;34681;49.188;-0.374;2023-08-07T02:55:24;3.50;;;2.60;;
48861;SDS011;34681;49.188;-0.374;2023-08-07T02:57:49;3.87;;;2.67;;
48861;SDS011;34681;49.188;-0.374;2023-08-07T03:00:14;3.07;;;2.33;;
48861;SDS011;34681;49.188;-0.374;2023-08-07T03:02:40;3.80;;;2.50;;
48861;SDS011;34681;49.188;-0.374;2023-08-07T03:05:05;7.90;;;2.70;;
48861;SDS011;34681;49.188;-0.374;2023-08-07T03:07:31;3.17;;;2.83;;
48861;SDS011;34681;49.188;-0.374;2023-08-07T03:09:56;6.40;;;2.70;;
48861;SDS011;34681;49.188;-0.374;2023-08-07T03:12:22;4.43;;;2.57;;
48861;SDS011;34681;49.188;-0.374;2023-08-07T03:14:47;3.97;;;2.30;;
48861;SDS011;34681;49.188;-0.374;2023-08-07T03:17:12;6.23;;;2.50;;
48861;SDS011;34681;49.188;-0.374;2023-08-07T03:19:39;4.43;;;2.73;;
48861;SDS011;34681;49.188;-0.374;2023-08-07T03:22:07;6.20;;;2.93;;
48861;SDS011;34681;49.188;-0.374;2023-08-07T03:24:32;7.83;;;3.00;;
48861;SDS011;34681;49.188;-0.374;2023-08-07T03:26:57;3.37;;;2.30;;
48861;SDS011;34681;49.188;-0.374;2023-08-07T03:29:23;2.77;;;2.30;;
48861;SDS011;34681;49.188;-0.374;2023-08-07T03:31:48;3.20;;;2.93;;
48861;SDS011;34681;49.188;-0.374;2023-08-07T03:34:13;3.80;;;1.90;;
48861;SDS011;34681;49.188;-0.374;2023-08-07T03:36:39;3.43;;;2.60;;
48861;SDS011;34681;49.188;-0.374;2023-08-07T03:39:04;2.77;;;2.47;;
48861;SDS011;34681;49.188;-0.374;2023-08-07T03:41:29;3.40;;;2.50;;
48861;SDS011;34681;49.188;-0.374;2023-08-07T03:43:55;3.53;;;2.70;;
48861;SDS011;34681;49.188;-0.374;2023-08-07T03:46:20;9.17;;;2.60;;
48861;SDS011;34681;49.188;-0.374;2023-08-07T03:48:45;3.10;;;2.43;;
48861;SDS011;34681;49.188;-0.374;2023-08-07T03:51:11;3.10;;;2.30;;
48861;SDS011;34681;49.188;-0.374;2023-08-07T03:53:37;4.03;;;2.53;;
48861;SDS011;34681;49.188;-0.374;2023-08-07T03:56:02;3.03;;;2.10;;
48861;SDS011;34681;49.188;-0.374;2023-08-07T03:58:28;4.13;;;2.30;;
48861;SDS011;34681;49.188;-0.374;2023-08-07T04:00:55;3.03;;;2.50;;
48861;SDS011;34681;49.188;-0.374;2023-08-07T04:03:20;7.53;;;3.03;;
48861;SDS011;34681;49.188;-0.374;2023-08-07T04:05:46;5.47;;;2.53;;
48861;SDS011;34681;49.188;-0.374;2023-08-07T04:08:11;2.80;;;2.13;;
48861;SDS011;34681;49.188;-0.374;2023-08-07T04:10:36;5.43;;;2.97;;
48861;SDS011;34681;49.188;-0.374;2023-08-07T04:13:02;4.13;;;2.50;;
48861;SDS011;34681;49.188;-0.374;2023-08-07T04:15:27;4.67;;;2.10;;
48861;SDS011;34681;49.188;-0.374;2023-08-07T04:17:52;5.10;;;2.33;;
48861;SDS011;34681;49.188;-0.374;2023-08-07T04:20:18;2.60;;;2.40;;
48861;SDS011;34681;49.188;-0.374;2023-08-07T04:22:45;3.43;;;2.23;;
48861;SDS011;34681;49.188;-0.374;2023-08-07T04:25:11;6.90;;;2.97;;
48861;SDS011;34681;49.188;-0.374;2023-08-07T04:27:36;4.27;;;2.40;;
48861;SDS011;34681;49.188;-0.374;2023-08-07T04:30:03;3.00;;;2.27;;
48861;SDS011;34681;49.188;-0.374;2023-08-07T04:32:29;3.00;;;2.10;;
48861;SDS011;34681;49.188;-0.374;2023-08-07T04:34:54;4.37;;;2.20;;
48861;SDS011;34681;49.188;-0.374;2023-08-07T04:37:20;8.10;;;2.57;;
48861;SDS011;34681;49.188;-0.374;2023-08-07T04:39:45;3.43;;;2.67;;
48861;SDS011;34681;49.188;-0.374;2023-08-07T04:42:10;2.60;;;2.27;;
48861;SDS011;34681;49.188;-0.374;2023-08-07T04:44:36;3.17;;;2.03;;
48861;SDS011;34681;49.188;-0.374;2023-08-07T04:47:01;2.10;;;1.80;;
48861;SDS011;34681;49.188;-0.374;2023-08-07T04:49:28;3.27;;;2.40;;
48861;SDS011;34681;49.188;-0.374;2023-08-07T04:51:53;4.33;;;2.50;;
48861;SDS011;34681;49.188;-0.374;2023-08-07T04:54:18;2.60;;;2.20;;
48861;SDS011;34681;49.188;-0.374;2023-08-07T04:56:44;3.77;;;2.13;;
48861;SDS011;34681;49.188;-0.374;2023-08-07T04:59:10;2.47;;;2.23;;
48861;SDS011;34681;49.188;-0.374;2023-08-07T05:01:36;2.70;;;2.00;;
48861;SDS011;34681;49.188;-0.374;2023-08-07T05:04:01;2.20;;;2.00;;
48861;SDS011;34681;49.188;-0.374;2023-08-07T05:06:27;2.70;;;2.07;;
48861;SDS011;34681;49.188;-0.374;2023-08-07T05:08:52;4.83;;;2.17;;
48861;SDS011;34681;49.188;-0.374;2023-08-07T05:11:17;4.53;;;2.40;;
48861;SDS011;34681;49.188;-0.374;2023-08-07T05:13:45;2.53;;;1.90;;
48861;SDS011;34681;49.188;-0.374;2023-08-07T05:16:10;3.00;;;2.00;;
48861;SDS011;34681;49.188;-0.374;2023-08-07T05:18:35;6.60;;;3.40;;
48861;SDS011;34681;49.188;-0.374;2023-08-07T05:21:01;2.40;;;2.20;;
48861;SDS011;34681;49.188;-0.374;2023-08-07T05:23:27;3.30;;;1.80;;
48861;SDS011;34681;49.188;-0.374;2023-08-07T05:25:52;3.43;;;2.57;;
48861;SDS011;34681;49.188;-0.374;2023-08-07T05:28:17;4.63;;;2.37;;
48861;SDS011;34681;49.188;-0.374;2023-08-07T05:30:43;2.53;;;2.33;;
48861;SDS011;34681;49.188;-0.374;2023-08-07T05:33:08;3.33;;;2.00;;
48861;SDS011;34681;49.188;-0.374;2023-08-07T05:35:33;3.00;;;2.00;;
48861;SDS011;34681;49.188;-0.374;2023-08-07T05:37:58;2.93;;;2.07;;
48861;SDS011;34681;49.188;-0.374;2023-08-07T05:40:24;4.20;;;2.50;;
48861;SDS011;34681;49.188;-0.374;2023-08-07T05:42:49;4.87;;;2.40;;
48861;SDS011;34681;49.188;-0.374;2023-08-07T05:45:14;3.33;;;2.30;;
48861;SDS011;34681;49.188;-0.374;2023-08-07T05:47:40;3.90;;;2.30;;
48861;SDS011;34681;49.188;-0.374;2023-08-07T05:50:05;5.97;;;2.27;;
48861;SDS011;34681;49.188;-0.374;2023-08-07T05:52:31;3.93;;;2.27;;
48861;SDS011;34681;49.188;-0.374;2023-08-07T05:54:56;4.20;;;1.90;;
48861;SDS011;34681;49.188;-0.374;2023-08-07T05:57:22;4.07;;;2.00;;
48861;SDS011;34681;49.188;-0.374;2023-08-07T05:59:49;1.97;;;1.87;;
48861;SDS011;34681;49.188;-0.374;2023-08-07T06:02:25;5.10;;;2.70;;
48861;SDS011;34681;49.188;-0.374;2023-08-07T06:04:51;3.50;;;2.57;;
48861;SDS011;34681;49.188;-0.374;2023-08-07T06:07:17;7.13;;;2.60;;
48861;SDS011;34681;49.188;-0.374;2023-08-07T06:09:43;2.53;;;2.30;;
48861;SDS011;34681;49.188;-0.374;2023-08-07T06:12:08;2.97;;;2.40;;
48861;SDS011;34681;49.188;-0.374;2023-08-07T06:14:33;4.07;;;2.53;;
48861;SDS011;34681;49.188;-0.374;2023-08-07T06:16:59;3.50;;;2.10;;
48861;SDS011;34681;49.188;-0.374;2023-08-07T06:19:26;2.10;;;1.90;;
48861;SDS011;34681;49.188;-0.374;2023-08-07T06:21:52;2.07;;;1.63;;
48861;SDS011;34681;49.188;-0.374;2023-08-07T06:24:18;2.63;;;1.93;;
48861;SDS011;34681;49.188;-0.374;2023-08-07T06:26:43;3.37;;;1.97;;
48861;SDS011;34681;49.188;-0.374;2023-08-07T06:29:08;2.27;;;1.73;;
48861;SDS011;34681;49.188;-0.374;2023-08-07T06:31:34;1.93;;;1.50;;
48861;SDS011;34681;49.188;-0.374;2023-08-07T06:33:59;2.67;;;1.87;;
48861;SDS011;34681;49.188;-0.374;2023-08-07T06:36:25;4.80;;;2.47;;
48861;SDS011;34681;49.188;-0.374;2023-08-07T06:38:50;3.00;;;1.80;;
48861;SDS011;34681;49.188;-0.374;2023-08-07T06:41:16;4.40;;;2.33;;
48861;SDS011;34681;49.188;-0.374;2023-08-07T06:43:41;6.80;;;2.27;;
48861;SDS011;34681;49.188;-0.374;2023-08-07T06:46:06;3.10;;;2.57;;
48861;SDS011;34681;49.188;-0.374;2023-08-07T06:48:32;3.23;;;2.17;;
48861;SDS011;34681;49.188;-0.374;2023-08-07T06:50:57;4.10;;;2.17;;
48861;SDS011;34681;49.188;-0.374;2023-08-07T06:53:22;4.20;;;2.10;;
48861;SDS011;34681;49.188;-0.374;2023-08-07T06:55:48;3.10;;;1.80;;
48861;SDS011;34681;49.188;-0.374;2023-08-07T06:58:13;2.20;;;1.57;;
48861;SDS011;34681;49.188;-0.374;2023-08-07T07:00:39;3.67;;;1.70;;
48861;SDS011;34681;49.188;-0.374;2023-08-07T07:03:04;4.50;;;2.30;;
48861;SDS011;34681;49.188;-0.374;2023-08-07T07:05:30;3.10;;;1.87;;
48861;SDS011;34681;49.188;-0.374;2023-08-07T07:07:56;3.40;;;2.20;;
48861;SDS011;34681;49.188;-0.374;2023-08-07T07:10:22;2.50;;;2.10;;
48861;SDS011;34681;49.188;-0.374;2023-08-07T07:12:47;4.13;;;2.13;;
48861;SDS011;34681;49.188;-0.374;2023-08-07T07:15:13;2.90;;;1.80;;
48861;SDS011;34681;49.188;-0.374;2023-08-07T07:17:38;8.50;;;2.00;;
48861;SDS011;34681;49.188;-0.374;2023-08-07T07:20:04;2.63;;;1.60;;
48861;SDS011;34681;49.188;-0.374;2023-08-07T07:22:30;3.43;;;1.83;;
48861;SDS011;34681;49.188;-0.374;2023-08-07T07:24:55;1.63;;;1.53;;
48861;SDS011;34681;49.188;-0.374;2023-08-07T07:27:21;3.73;;;1.83;;
48861;SDS011;34681;49.188;-0.374;2023-08-07T07:29:47;3.23;;;2.40;;
48861;SDS011;34681;49.188;-0.374;2023-08-07T07:32:13;3.10;;;2.17;;
48861;SDS011;34681;49.188;-0.374;2023-08-07T07:34:38;8.17;;;2.53;;
48861;SDS011;34681;49.188;-0.374;2023-08-07T07:37:04;2.10;;;1.80;;
48861;SDS011;34681;49.188;-0.374;2023-08-07T07:39:29;16.20;;;2.30;;
48861;SDS011;34681;49.188;-0.374;2023-08-07T07:41:55;2.23;;;1.57;;
48861;SDS011;34681;49.188;-0.374;2023-08-07T07:44:20;10.27;;;3.80;;
48861;SDS011;34681;49.188;-0.374;2023-08-07T07:46:46;5.00;;;2.23;;
48861;SDS011;34681;49.188;-0.374;2023-08-07T07:49:11;2.73;;;1.80;;
48861;SDS011;34681;49.188;-0.374;2023-08-07T07:51:36;4.67;;;2.23;;
48861;SDS011;34681;49.188;-0.374;2023-08-07T07:54:02;1.70;;;1.60;;
48861;SDS011;34681;49.188;-0.374;2023-08-07T07:56:28;2.20;;;1.87;;
48861;SDS011;34681;49.188;-0.374;2023-08-07T07:58:53;2.90;;;1.63;;
48861;SDS011;34681;49.188;-0.374;2023-08-07T08:01:18;3.17;;;1.67;;
48861;SDS011;34681;49.188;-0.374;2023-08-07T08:03:44;3.20;;;2.10;;
48861;SDS011;34681;49.188;-0.374;2023-08-07T08:06:12;2.20;;;1.90;;
48861;SDS011;34681;49.188;-0.374;2023-08-07T08:08:38;3.47;;;1.77;;
48861;SDS011;34681;49.188;-0.374;2023-08-07T08:11:03;2.30;;;1.40;;
48861;SDS011;34681;49.188;-0.374;2023-08-07T08:13:29;3.60;;;1.83;;
48861;SDS011;34681;49.188;-0.374;2023-08-07T08:15:54;2.53;;;1.70;;
48861;SDS011;34681;49.188;-0.374;2023-08-07T08:18:19;1.90;;;1.43;;
48861;SDS011;34681;49.188;-0.374;2023-08-07T08:20:45;2.30;;;1.50;;
48861;SDS011;34681;49.188;-0.374;2023-08-07T08:23:10;1.67;;;1.57;;
48861;SDS011;34681;49.188;-0.374;2023-08-07T08:25:36;2.07;;;1.10;;
48861;SDS011;34681;49.188;-0.374;2023-08-07T08:28:01;1.40;;;1.30;;
48861;SDS011;34681;49.188;-0.374;2023-08-07T08:30:27;2.73;;;1.40;;
48861;SDS011;34681;49.188;-0.374;2023-08-07T08:32:53;1.30;;;1.17;;
48861;SDS011;34681;49.188;-0.374;2023-08-07T08:35:18;1.30;;;1.13;;
48861;SDS011;34681;49.188;-0.374;2023-08-07T08:37:44;1.57;;;1.40;;
48861;SDS011;34681;49.188;-0.374;2023-08-07T08:40:09;1.50;;;1.30;;
48861;SDS011;34681;49.188;-0.374;2023-08-07T08:42:37;1.40;;;1.30;;
48861;SDS011;34681;49.188;-0.374;2023-08-07T08:45:04;1.77;;;1.23;;
48861;SDS011;34681;49.188;-0.374;2023-08-07T08:47:30;2.03;;;1.20;;
48861;SDS011;34681;49.188;-0.374;2023-08-07T08:49:59;2.50;;;1.57;;
48861;SDS011;34681;49.188;-0.374;2023-08-07T08:52:30;2.23;;;1.30;;
48861;SDS011;34681;49.188;-0.374;2023-08-07T08:54:57;2.00;;;1.80;;
48861;SDS011;34681;49.188;-0.374;2023-08-07T08:57:24;2.77;;;1.40;;
48861;SDS011;34681;49.188;-0.374;2023-08-07T08:59:51;1.53;;;1.20;;
48861;SDS011;34681;49.188;-0.374;2023-08-07T09:02:17;1.27;;;1.10;;
48861;SDS011;34681;49.188;-0.374;2023-08-07T09:04:43;2.17;;;1.20;;
48861;SDS011;34681;49.188;-0.374;2023-08-07T09:07:10;1.93;;;1.70;;
48861;SDS011;34681;49.188;-0.374;2023-08-07T09:09:38;1.20;;;1.10;;
48861;SDS011;34681;49.188;-0.374;2023-08-07T09:12:05;2.97;;;1.23;;
48861;SDS011;34681;49.188;-0.374;2023-08-07T09:14:33;1.90;;;1.27;;
48861;SDS011;34681;49.188;-0.374;2023-08-07T09:17:02;1.20;;;1.10;;
48861;SDS011;34681;49.188;-0.374;2023-08-07T09:19:28;3.07;;;1.53;;
48861;SDS011;34681;49.188;-0.374;2023-08-07T09:21:53;2.20;;;1.13;;
48861;SDS011;34681;49.188;-0.374;2023-08-07T09:24:18;1.67;;;1.23;;
48861;SDS011;34681;49.188;-0.374;2023-08-07T09:26:46;1.47;;;1.00;;
48861;SDS011;34681;49.188;-0.374;2023-08-07T09:29:12;1.10;;;1.00;;
48861;SDS011;34681;49.188;-0.374;2023-08-07T09:31:38;1.40;;;1.13;;
48861;SDS011;34681;49.188;-0.374;2023-08-07T09:34:03;1.33;;;0.93;;
48861;SDS011;34681;49.188;-0.374;2023-08-07T09:36:33;1.47;;;1.07;;
48861;SDS011;34681;49.188;-0.374;2023-08-07T09:39:02;1.50;;;1.20;;
48861;SDS011;34681;49.188;-0.374;2023-08-07T09:41:29;1.00;;;0.90;;
48861;SDS011;34681;49.188;-0.374;2023-08-07T09:43:55;2.40;;;1.30;;
48861;SDS011;34681;49.188;-0.374;2023-08-07T09:46:22;1.77;;;1.20;;
48861;SDS011;34681;49.188;-0.374;2023-08-07T09:48:48;1.40;;;1.30;;
48861;SDS011;34681;49.188;-0.374;2023-08-07T09:51:13;1.63;;;1.10;;
48861;SDS011;34681;49.188;-0.374;2023-08-07T09:53:39;1.10;;;1.00;;
48861;SDS011;34681;49.188;-0.374;2023-08-07T09:56:04;1.50;;;1.00;;
48861;SDS011;34681;49.188;-0.374;2023-08-07T09:58:30;1.90;;;1.73;;
48861;SDS011;34681;49.188;-0.374;2023-08-07T10:00:58;2.27;;;1.20;;
48861;SDS011;34681;49.188;-0.374;2023-08-07T10:03:25;3.67;;;1.30;;
48861;SDS011;34681;49.188;-0.374;2023-08-07T10:05:51;4.43;;;1.53;;
48861;SDS011;34681;49.188;-0.374;2023-08-07T10:08:17;1.47;;;1.30;;
48861;SDS011;34681;49.188;-0.374;2023-08-07T10:10:43;2.40;;;1.43;;
48861;SDS011;34681;49.188;-0.374;2023-08-07T10:13:09;2.00;;;1.20;;
48861;SDS011;34681;49.188;-0.374;2023-08-07T10:15:38;1.10;;;1.10;;
48861;SDS011;34681;49.188;-0.374;2023-08-07T10:18:05;4.60;;;1.10;;
48861;SDS011;34681;49.188;-0.374;2023-08-07T10:20:30;4.10;;;2.13;;
48861;SDS011;34681;49.188;-0.374;2023-08-07T10:23:00;3.43;;;1.40;;
48861;SDS011;34681;49.188;-0.374;2023-08-07T10:25:29;2.23;;;1.60;;
48861;SDS011;34681;49.188;-0.374;2023-08-07T10:27:56;1.43;;;1.10;;
48861;SDS011;34681;49.188;-0.374;2023-08-07T10:30:25;1.80;;;1.60;;
48861;SDS011;34681;49.188;-0.374;2023-08-07T10:32:51;8.47;;;1.87;;
48861;SDS011;34681;49.188;-0.374;2023-08-07T10:37:52;1.07;;;0.97;;
48861;SDS011;34681;49.188;-0.374;2023-08-07T10:40:20;2.73;;;1.57;;
48861;SDS011;34681;49.188;-0.374;2023-08-07T10:43:00;2.27;;;1.30;;
48861;SDS011;34681;49.188;-0.374;2023-08-07T10:45:37;3.83;;;1.70;;
48861;SDS011;34681;49.188;-0.374;2023-08-07T10:50:34;4.10;;;1.60;;
48861;SDS011;34681;49.188;-0.374;2023-08-07T10:53:18;1.70;;;1.30;;
48861;SDS011;34681;49.188;-0.374;2023-08-07T10:56:07;2.13;;;1.30;;
48861;SDS011;34681;49.188;-0.374;2023-08-07T11:04:04;1.27;;;1.10;;
48861;SDS011;34681;49.188;-0.374;2023-08-07T11:06:31;2.33;;;1.20;;
48861;SDS011;34681;49.188;-0.374;2023-08-07T11:08:58;1.73;;;1.30;;
48861;SDS011;34681;49.188;-0.374;2023-08-07T11:11:24;1.63;;;1.20;;
48861;SDS011;34681;49.188;-0.374;2023-08-07T11:13:52;2.60;;;1.20;;
48861;SDS011;34681;49.188;-0.374;2023-08-07T11:16:17;3.30;;;1.50;;
48861;SDS011;34681;49.188;-0.374;2023-08-07T11:18:45;1.70;;;1.30;;
48861;SDS011;34681;49.188;-0.374;2023-08-07T11:21:12;1.80;;;1.30;;
48861;SDS011;34681;49.188;-0.374;2023-08-07T11:23:38;1.50;;;1.20;;
48861;SDS011;34681;49.188;-0.374;2023-08-07T11:26:04;1.67;;;1.30;;
48861;SDS011;34681;49.188;-0.374;2023-08-07T11:28:30;1.90;;;1.17;;
48861;SDS011;34681;49.188;-0.374;2023-08-07T11:30:56;2.67;;;1.10;;
48861;SDS011;34681;49.188;-0.374;2023-08-07T11:33:23;1.63;;;1.53;;
48861;SDS011;34681;49.188;-0.374;2023-08-07T11:35:49;1.80;;;1.20;;
48861;SDS011;34681;49.188;-0.374;2023-08-07T11:38:34;3.40;;;1.70;;
48861;SDS011;34681;49.188;-0.374;2023-08-07T11:41:02;1.30;;;1.20;;
48861;SDS011;34681;49.188;-0.374;2023-08-07T11:43:29;1.10;;;1.10;;
48861;SDS011;34681;49.188;-0.374;2023-08-07T11:46:00;1.50;;;1.40;;
48861;SDS011;34681;49.188;-0.374;2023-08-07T11:48:28;2.17;;;1.50;;
48861;SDS011;34681;49.188;-0.374;2023-08-07T11:50:55;1.43;;;1.17;;
48861;SDS011;34681;49.188;-0.374;2023-08-07T11:53:21;1.63;;;1.20;;
48861;SDS011;34681;49.188;-0.374;2023-08-07T12:01:13;2.27;;;1.97;;
48861;SDS011;34681;49.188;-0.374;2023-08-07T12:03:49;1.97;;;1.33;;
48861;SDS011;34681;49.188;-0.374;2023-08-07T12:06:16;2.00;;;1.10;;
48861;SDS011;34681;49.188;-0.374;2023-08-07T12:08:42;1.47;;;1.37;;
48861;SDS011;34681;49.188;-0.374;2023-08-07T12:11:10;1.30;;;1.20;;
48861;SDS011;34681;49.188;-0.374;2023-08-07T12:13:38;1.13;;;1.10;;
48861;SDS011;34681;49.188;-0.374;2023-08-07T12:16:05;1.10;;;1.00;;
48861;SDS011;34681;49.188;-0.374;2023-08-07T12:18:30;1.13;;;1.00;;
48861;SDS011;34681;49.188;-0.374;2023-08-07T12:20:57;1.90;;;1.10;;
48861;SDS011;34681;49.188;-0.374;2023-08-07T12:23:24;1.77;;;1.47;;
48861;SDS011;34681;49.188;-0.374;2023-08-07T12:25:50;1.87;;;1.23;;
48861;SDS011;34681;49.188;-0.374;2023-08-07T12:28:15;1.60;;;1.50;;
48861;SDS011;34681;49.188;-0.374;2023-08-07T12:30:43;3.30;;;1.50;;
48861;SDS011;34681;49.188;-0.374;2023-08-07T12:33:10;2.03;;;1.40;;
48861;SDS011;34681;49.188;-0.374;2023-08-07T12:35:36;1.67;;;1.47;;
48861;SDS011;34681;49.188;-0.374;2023-08-07T12:38:01;1.47;;;1.20;;
48861;SDS011;34681;49.188;-0.374;2023-08-07T12:40:28;1.03;;;0.97;;
48861;SDS011;34681;49.188;-0.374;2023-08-07T12:42:53;1.20;;;1.10;;
48861;SDS011;34681;49.188;-0.374;2023-08-07T12:45:19;1.50;;;1.37;;
48861;SDS011;34681;49.188;-0.374;2023-08-07T12:47:45;2.13;;;1.50;;
48861;SDS011;34681;49.188;-0.374;2023-08-07T12:50:11;2.53;;;1.37;;
48861;SDS011;34681;49.188;-0.374;2023-08-07T12:52:36;1.20;;;1.10;;
48861;SDS011;34681;49.188;-0.374;2023-08-07T12:55:02;2.00;;;1.47;;
48861;SDS011;34681;49.188;-0.374;2023-08-07T12:57:27;2.53;;;1.40;;
48861;SDS011;34681;49.188;-0.374;2023-08-07T12:59:53;1.20;;;1.10;;
48861;SDS011;34681;49.188;-0.374;2023-08-07T13:02:18;2.17;;;1.60;;
48861;SDS011;34681;49.188;-0.374;2023-08-07T13:04:43;3.63;;;1.63;;
48861;SDS011;34681;49.188;-0.374;2023-08-07T13:07:09;2.43;;;1.47;;
48861;SDS011;34681;49.188;-0.374;2023-08-07T13:09:34;4.00;;;1.63;;
48861;SDS011;34681;49.188;-0.374;2023-08-07T13:11:59;2.47;;;1.47;;
48861;SDS011;34681;49.188;-0.374;2023-08-07T13:14:25;1.53;;;1.43;;
48861;SDS011;34681;49.188;-0.374;2023-08-07T13:16:50;3.67;;;1.80;;
48861;SDS011;34681;49.188;-0.374;2023-08-07T13:19:16;4.20;;;1.73;;
48861;SDS011;34681;49.188;-0.374;2023-08-07T13:21:41;2.33;;;1.70;;
48861;SDS011;34681;49.188;-0.374;2023-08-07T13:24:07;1.77;;;1.53;;
48861;SDS011;34681;49.188;-0.374;2023-08-07T13:26:32;2.67;;;1.20;;
48861;SDS011;34681;49.188;-0.374;2023-08-07T13:28:57;4.67;;;1.50;;
48861;SDS011;34681;49.188;-0.374;2023-08-07T13:31:23;3.57;;;1.30;;
48861;SDS011;34681;49.188;-0.374;2023-08-07T13:33:48;1.33;;;1.20;;
48861;SDS011;34681;49.188;-0.374;2023-08-07T13:36:14;1.10;;;1.00;;
48861;SDS011;34681;49.188;-0.374;2023-08-07T13:38:39;2.20;;;1.40;;
48861;SDS011;34681;49.188;-0.374;2023-08-07T13:41:04;1.57;;;1.37;;
48861;SDS011;34681;49.188;-0.374;2023-08-07T13:43:30;1.60;;;1.40;;
48861;SDS011;34681;49.188;-0.374;2023-08-07T13:45:55;1.83;;;1.43;;
48861;SDS011;34681;49.188;-0.374;2023-08-07T13:48:20;1.67;;;1.57;;
48861;SDS011;34681;49.188;-0.374;2023-08-07T13:50:46;1.43;;;1.10;;
48861;SDS011;34681;49.188;-0.374;2023-08-07T13:53:12;1.33;;;1.23;;
48861;SDS011;34681;49.188;-0.374;2023-08-07T13:55:37;2.00;;;1.57;;
48861;SDS011;34681;49.188;-0.374;2023-08-07T13:58:03;2.23;;;1.40;;
48861;SDS011;34681;49.188;-0.374;2023-08-07T14:00:29;1.47;;;1.10;;
48861;SDS011;34681;49.188;-0.374;2023-08-07T14:02:54;2.70;;;1.20;;
48861;SDS011;34681;49.188;-0.374;2023-08-07T14:05:20;1.40;;;1.10;;
48861;SDS011;34681;49.188;-0.374;2023-08-07T14:07:45;3.77;;;1.60;;
48861;SDS011;34681;49.188;-0.374;2023-08-07T14:10:11;2.10;;;1.50;;
48861;SDS011;34681;49.188;-0.374;2023-08-07T14:12:36;2.17;;;1.10;;
48861;SDS011;34681;49.188;-0.374;2023-08-07T14:15:01;2.20;;;1.27;;
48861;SDS011;34681;49.188;-0.374;2023-08-07T14:17:27;1.23;;;1.10;;
48861;SDS011;34681;49.188;-0.374;2023-08-07T14:19:52;1.03;;;1.03;;
48861;SDS011;34681;49.188;-0.374;2023-08-07T14:22:17;7.13;;;1.97;;
48861;SDS011;34681;49.188;-0.374;2023-08-07T14:24:43;2.60;;;1.40;;
48861;SDS011;34681;49.188;-0.374;2023-08-07T14:27:08;3.60;;;1.40;;
48861;SDS011;34681;49.188;-0.374;2023-08-07T14:29:34;2.33;;;1.23;;
48861;SDS011;34681;49.188;-0.374;2023-08-07T14:31:59;3.17;;;1.50;;
48861;SDS011;34681;49.188;-0.374;2023-08-07T14:34:24;2.20;;;1.27;;
48861;SDS011;34681;49.188;-0.374;2023-08-07T14:36:50;2.37;;;1.53;;
48861;SDS011;34681;49.188;-0.374;2023-08-07T14:39:15;1.23;;;1.10;;
48861;SDS011;34681;49.188;-0.374;2023-08-07T14:41:41;1.43;;;1.00;;
48861;SDS011;34681;49.188;-0.374;2023-08-07T14:44:06;1.60;;;1.50;;
48861;SDS011;34681;49.188;-0.374;2023-08-07T14:46:31;2.63;;;1.30;;
48861;SDS011;34681;49.188;-0.374;2023-08-07T14:48:57;1.63;;;1.10;;
48861;SDS011;34681;49.188;-0.374;2023-08-07T14:51:22;2.20;;;1.30;;
48861;SDS011;34681;49.188;-0.374;2023-08-07T14:53:47;1.60;;;1.50;;
48861;SDS011;34681;49.188;-0.374;2023-08-07T14:56:13;2.50;;;1.27;;
48861;SDS011;34681;49.188;-0.374;2023-08-07T14:58:38;1.77;;;1.20;;